sensor_id;sensor_type;location;lat;lon;timestamp;P1;durP1;ratioP1;P2;durP2;ratioP2
26484;SDS011;18083;50.560;7.262;2023-06-24T00:01:42;6.70;;;5.28;;
26484;SDS011;18083;50.560;7.262;2023-06-24T00:04:10;8.23;;;6.08;;
26484;SDS011;18083;50.560;7.262;2023-06-24T00:06:37;7.35;;;5.67;;
26484;SDS011;18083;50.560;7.262;2023-06-24T00:09:06;6.05;;;5.20;;
26484;SDS011;18083;50.560;7.262;2023-06-24T00:11:34;7.95;;;5.78;;
26484;SDS011;18083;50.560;7.262;2023-06-24T00:14:01;7.65;;;6.53;;
26484;SDS011;18083;50.560;7.262;2023-06-24T00:16:28;7.70;;;6.67;;
26484;SDS011;18083;50.560;7.262;2023-06-24T00:18:56;8.33;;;5.95;;
26484;SDS011;18083;50.560;7.262;2023-06-24T00:21:27;7.87;;;6.83;;
26484;SDS011;18083;50.560;7.262;2023-06-24T00:23:58;7.12;;;6.15;;
26484;SDS011;18083;50.560;7.262;2023-06-24T00:26:27;8.18;;;5.97;;
26484;SDS011;18083;50.560;7.262;2023-06-24T00:28:54;9.65;;;6.20;;
26484;SDS011;18083;50.560;7.262;2023-06-24T00:31:21;10.43;;;6.00;;
26484;SDS011;18083;50.560;7.262;2023-06-24T00:33:49;7.45;;;5.45;;
26484;SDS011;18083;50.560;7.262;2023-06-24T00:36:18;10.68;;;6.92;;
26484;SDS011;18083;50.560;7.262;2023-06-24T00:38:45;6.78;;;5.60;;
26484;SDS011;18083;50.560;7.262;2023-06-24T00:41:14;7.12;;;6.37;;
26484;SDS011;18083;50.560;7.262;2023-06-24T00:43:44;10.48;;;7.08;;
26484;SDS011;18083;50.560;7.262;2023-06-24T00:46:12;10.78;;;6.85;;
26484;SDS011;18083;50.560;7.262;2023-06-24T00:48:40;10.28;;;6.50;;
26484;SDS011;18083;50.560;7.262;2023-06-24T00:51:07;9.50;;;6.65;;
26484;SDS011;18083;50.560;7.262;2023-06-24T00:53:34;6.75;;;6.03;;
26484;SDS011;18083;50.560;7.262;2023-06-24T00:56:02;9.33;;;7.00;;
26484;SDS011;18083;50.560;7.262;2023-06-24T00:58:31;11.95;;;8.05;;
26484;SDS011;18083;50.560;7.262;2023-06-24T01:00:58;11.05;;;8.40;;
26484;SDS011;18083;50.560;7.262;2023-06-24T01:06:13;9.98;;;7.50;;
26484;SDS011;18083;50.560;7.262;2023-06-24T01:08:41;7.65;;;6.65;;
26484;SDS011;18083;50.560;7.262;2023-06-24T01:11:08;8.05;;;6.75;;
26484;SDS011;18083;50.560;7.262;2023-06-24T01:13:36;8.95;;;7.22;;
26484;SDS011;18083;50.560;7.262;2023-06-24T01:16:05;9.10;;;6.40;;
26484;SDS011;18083;50.560;7.262;2023-06-24T01:18:34;9.63;;;6.95;;
26484;SDS011;18083;50.560;7.262;2023-06-24T01:21:03;11.43;;;6.45;;
26484;SDS011;18083;50.560;7.262;2023-06-24T01:26:21;11.05;;;6.92;;
26484;SDS011;18083;50.560;7.262;2023-06-24T01:33:52;7.75;;;6.78;;
26484;SDS011;18083;50.560;7.262;2023-06-24T01:39:07;10.68;;;7.47;;
26484;SDS011;18083;50.560;7.262;2023-06-24T01:41:42;9.90;;;7.60;;
26484;SDS011;18083;50.560;7.262;2023-06-24T01:44:10;7.58;;;6.75;;
26484;SDS011;18083;50.560;7.262;2023-06-24T01:46:38;7.72;;;6.30;;
26484;SDS011;18083;50.560;7.262;2023-06-24T01:49:07;7.40;;;6.70;;
26484;SDS011;18083;50.560;7.262;2023-06-24T01:51:36;9.35;;;6.50;;
26484;SDS011;18083;50.560;7.262;2023-06-24T01:54:05;14.58;;;6.87;;
26484;SDS011;18083;50.560;7.262;2023-06-24T01:56:33;8.30;;;6.90;;
26484;SDS011;18083;50.560;7.262;2023-06-24T01:59:02;6.92;;;6.22;;
26484;SDS011;18083;50.560;7.262;2023-06-24T02:01:33;10.00;;;6.47;;
26484;SDS011;18083;50.560;7.262;2023-06-24T02:04:01;7.22;;;6.50;;
26484;SDS011;18083;50.560;7.262;2023-06-24T02:06:29;8.50;;;6.97;;
26484;SDS011;18083;50.560;7.262;2023-06-24T02:08:57;9.85;;;7.42;;
26484;SDS011;18083;50.560;7.262;2023-06-24T02:11:28;8.75;;;6.58;;
26484;SDS011;18083;50.560;7.262;2023-06-24T02:13:56;10.30;;;7.65;;
26484;SDS011;18083;50.560;7.262;2023-06-24T02:16:25;8.33;;;7.42;;
26484;SDS011;18083;50.560;7.262;2023-06-24T02:18:53;9.50;;;7.65;;
26484;SDS011;18083;50.560;7.262;2023-06-24T02:21:21;8.08;;;5.60;;
26484;SDS011;18083;50.560;7.262;2023-06-24T02:23:52;7.67;;;6.37;;
26484;SDS011;18083;50.560;7.262;2023-06-24T02:26:19;7.70;;;6.25;;
26484;SDS011;18083;50.560;7.262;2023-06-24T02:28:47;10.40;;;6.75;;
26484;SDS011;18083;50.560;7.262;2023-06-24T02:31:15;8.98;;;6.33;;
26484;SDS011;18083;50.560;7.262;2023-06-24T02:33:43;7.47;;;6.40;;
26484;SDS011;18083;50.560;7.262;2023-06-24T02:36:10;7.97;;;6.85;;
26484;SDS011;18083;50.560;7.262;2023-06-24T02:38:38;10.30;;;6.08;;
26484;SDS011;18083;50.560;7.262;2023-06-24T02:41:05;10.48;;;6.45;;
26484;SDS011;18083;50.560;7.262;2023-06-24T02:43:32;8.05;;;6.72;;
26484;SDS011;18083;50.560;7.262;2023-06-24T02:46:02;10.00;;;6.62;;
26484;SDS011;18083;50.560;7.262;2023-06-24T02:48:50;6.75;;;6.05;;
26484;SDS011;18083;50.560;7.262;2023-06-24T02:51:18;8.88;;;6.28;;
26484;SDS011;18083;50.560;7.262;2023-06-24T02:53:46;7.28;;;6.58;;
26484;SDS011;18083;50.560;7.262;2023-06-24T02:56:14;9.20;;;6.60;;
26484;SDS011;18083;50.560;7.262;2023-06-24T02:58:43;8.25;;;6.80;;
26484;SDS011;18083;50.560;7.262;2023-06-24T03:01:11;7.97;;;6.28;;
26484;SDS011;18083;50.560;7.262;2023-06-24T03:03:38;7.67;;;5.75;;
26484;SDS011;18083;50.560;7.262;2023-06-24T03:06:07;11.28;;;6.55;;
26484;SDS011;18083;50.560;7.262;2023-06-24T03:08:36;8.98;;;7.05;;
26484;SDS011;18083;50.560;7.262;2023-06-24T03:11:04;6.85;;;6.05;;
26484;SDS011;18083;50.560;7.262;2023-06-24T03:13:31;10.93;;;6.42;;
26484;SDS011;18083;50.560;7.262;2023-06-24T03:15:58;9.53;;;6.87;;
26484;SDS011;18083;50.560;7.262;2023-06-24T03:18:26;9.33;;;7.05;;
26484;SDS011;18083;50.560;7.262;2023-06-24T03:20:53;9.45;;;6.53;;
26484;SDS011;18083;50.560;7.262;2023-06-24T03:23:20;9.53;;;7.28;;
26484;SDS011;18083;50.560;7.262;2023-06-24T03:25:48;13.10;;;6.37;;
26484;SDS011;18083;50.560;7.262;2023-06-24T03:28:15;12.10;;;7.08;;
26484;SDS011;18083;50.560;7.262;2023-06-24T03:30:42;13.10;;;6.22;;
26484;SDS011;18083;50.560;7.262;2023-06-24T03:33:09;8.45;;;6.33;;
26484;SDS011;18083;50.560;7.262;2023-06-24T03:35:37;9.40;;;5.95;;
26484;SDS011;18083;50.560;7.262;2023-06-24T03:38:04;8.28;;;6.70;;
26484;SDS011;18083;50.560;7.262;2023-06-24T03:40:31;10.03;;;6.62;;
26484;SDS011;18083;50.560;7.262;2023-06-24T03:45:45;9.33;;;6.30;;
26484;SDS011;18083;50.560;7.262;2023-06-24T03:48:12;11.12;;;6.72;;
26484;SDS011;18083;50.560;7.262;2023-06-24T03:50:40;12.23;;;7.08;;
26484;SDS011;18083;50.560;7.262;2023-06-24T03:53:07;13.25;;;7.12;;
26484;SDS011;18083;50.560;7.262;2023-06-24T03:55:34;7.83;;;7.05;;
26484;SDS011;18083;50.560;7.262;2023-06-24T03:58:01;12.07;;;7.67;;
26484;SDS011;18083;50.560;7.262;2023-06-24T04:00:29;16.07;;;8.33;;
26484;SDS011;18083;50.560;7.262;2023-06-24T04:02:56;14.55;;;8.68;;
26484;SDS011;18083;50.560;7.262;2023-06-24T04:05:25;11.18;;;8.25;;
26484;SDS011;18083;50.560;7.262;2023-06-24T04:07:52;11.33;;;8.03;;
26484;SDS011;18083;50.560;7.262;2023-06-24T04:10:20;11.93;;;8.50;;
26484;SDS011;18083;50.560;7.262;2023-06-24T04:12:47;12.75;;;7.83;;
26484;SDS011;18083;50.560;7.262;2023-06-24T04:15:14;11.22;;;7.22;;
26484;SDS011;18083;50.560;7.262;2023-06-24T04:17:41;10.15;;;6.67;;
26484;SDS011;18083;50.560;7.262;2023-06-24T04:20:09;9.10;;;7.60;;
26484;SDS011;18083;50.560;7.262;2023-06-24T04:22:37;9.65;;;6.92;;
26484;SDS011;18083;50.560;7.262;2023-06-24T04:25:05;9.85;;;7.80;;
26484;SDS011;18083;50.560;7.262;2023-06-24T04:27:33;10.55;;;7.40;;
26484;SDS011;18083;50.560;7.262;2023-06-24T04:30:01;9.93;;;7.00;;
26484;SDS011;18083;50.560;7.262;2023-06-24T04:32:28;12.88;;;6.70;;
26484;SDS011;18083;50.560;7.262;2023-06-24T04:34:57;13.80;;;7.55;;
26484;SDS011;18083;50.560;7.262;2023-06-24T04:37:25;10.50;;;6.72;;
26484;SDS011;18083;50.560;7.262;2023-06-24T04:39:53;10.63;;;7.42;;
26484;SDS011;18083;50.560;7.262;2023-06-24T04:42:20;10.78;;;7.78;;
26484;SDS011;18083;50.560;7.262;2023-06-24T04:44:49;9.15;;;6.65;;
26484;SDS011;18083;50.560;7.262;2023-06-24T04:47:18;9.03;;;6.58;;
26484;SDS011;18083;50.560;7.262;2023-06-24T04:49:45;8.05;;;6.33;;
26484;SDS011;18083;50.560;7.262;2023-06-24T04:54:59;13.25;;;7.83;;
26484;SDS011;18083;50.560;7.262;2023-06-24T04:57:30;11.65;;;7.28;;
26484;SDS011;18083;50.560;7.262;2023-06-24T04:59:58;10.38;;;6.97;;
26484;SDS011;18083;50.560;7.262;2023-06-24T05:02:25;13.00;;;7.08;;
26484;SDS011;18083;50.560;7.262;2023-06-24T05:04:52;13.75;;;7.05;;
26484;SDS011;18083;50.560;7.262;2023-06-24T05:07:19;9.63;;;6.50;;
26484;SDS011;18083;50.560;7.262;2023-06-24T05:09:47;9.20;;;7.10;;
26484;SDS011;18083;50.560;7.262;2023-06-24T05:12:15;10.70;;;8.18;;
26484;SDS011;18083;50.560;7.262;2023-06-24T05:14:42;11.70;;;6.58;;
26484;SDS011;18083;50.560;7.262;2023-06-24T05:17:09;14.65;;;8.18;;
26484;SDS011;18083;50.560;7.262;2023-06-24T05:19:37;11.78;;;7.53;;
26484;SDS011;18083;50.560;7.262;2023-06-24T05:22:04;9.90;;;7.80;;
26484;SDS011;18083;50.560;7.262;2023-06-24T05:24:31;8.68;;;7.05;;
26484;SDS011;18083;50.560;7.262;2023-06-24T05:27:03;10.30;;;8.50;;
26484;SDS011;18083;50.560;7.262;2023-06-24T05:29:28;12.68;;;8.25;;
26484;SDS011;18083;50.560;7.262;2023-06-24T05:31:55;8.80;;;7.85;;
26484;SDS011;18083;50.560;7.262;2023-06-24T05:34:22;12.33;;;8.50;;
26484;SDS011;18083;50.560;7.262;2023-06-24T05:36:49;9.30;;;8.40;;
26484;SDS011;18083;50.560;7.262;2023-06-24T05:39:17;8.98;;;8.08;;
26484;SDS011;18083;50.560;7.262;2023-06-24T05:41:44;10.10;;;8.65;;
26484;SDS011;18083;50.560;7.262;2023-06-24T05:44:11;9.45;;;7.97;;
26484;SDS011;18083;50.560;7.262;2023-06-24T05:46:38;10.50;;;8.73;;
26484;SDS011;18083;50.560;7.262;2023-06-24T05:49:06;13.20;;;9.53;;
26484;SDS011;18083;50.560;7.262;2023-06-24T05:51:33;8.88;;;7.87;;
26484;SDS011;18083;50.560;7.262;2023-06-24T05:54:00;11.33;;;8.23;;
26484;SDS011;18083;50.560;7.262;2023-06-24T05:56:28;10.65;;;7.92;;
26484;SDS011;18083;50.560;7.262;2023-06-24T05:58:56;14.03;;;9.58;;
26484;SDS011;18083;50.560;7.262;2023-06-24T06:01:23;10.95;;;8.53;;
26484;SDS011;18083;50.560;7.262;2023-06-24T06:03:50;11.68;;;8.33;;
26484;SDS011;18083;50.560;7.262;2023-06-24T06:06:18;13.53;;;8.85;;
26484;SDS011;18083;50.560;7.262;2023-06-24T06:08:45;11.38;;;8.63;;
26484;SDS011;18083;50.560;7.262;2023-06-24T06:11:12;10.95;;;7.83;;
26484;SDS011;18083;50.560;7.262;2023-06-24T06:13:40;10.45;;;8.78;;
26484;SDS011;18083;50.560;7.262;2023-06-24T06:16:07;13.88;;;9.60;;
26484;SDS011;18083;50.560;7.262;2023-06-24T06:18:34;10.58;;;8.53;;
26484;SDS011;18083;50.560;7.262;2023-06-24T06:21:02;12.28;;;10.03;;
26484;SDS011;18083;50.560;7.262;2023-06-24T06:23:29;11.93;;;9.30;;
26484;SDS011;18083;50.560;7.262;2023-06-24T06:25:56;11.33;;;9.50;;
26484;SDS011;18083;50.560;7.262;2023-06-24T06:28:24;11.40;;;9.38;;
26484;SDS011;18083;50.560;7.262;2023-06-24T06:30:51;9.20;;;8.10;;
26484;SDS011;18083;50.560;7.262;2023-06-24T06:33:18;11.60;;;9.83;;
26484;SDS011;18083;50.560;7.262;2023-06-24T06:35:46;11.28;;;9.43;;
26484;SDS011;18083;50.560;7.262;2023-06-24T06:38:13;9.93;;;8.48;;
26484;SDS011;18083;50.560;7.262;2023-06-24T06:43:27;12.90;;;9.33;;
26484;SDS011;18083;50.560;7.262;2023-06-24T06:45:54;14.53;;;8.65;;
26484;SDS011;18083;50.560;7.262;2023-06-24T06:48:22;8.45;;;7.60;;
26484;SDS011;18083;50.560;7.262;2023-06-24T06:50:49;11.25;;;8.08;;
26484;SDS011;18083;50.560;7.262;2023-06-24T06:53:18;9.85;;;8.15;;
26484;SDS011;18083;50.560;7.262;2023-06-24T06:55:49;13.58;;;9.60;;
26484;SDS011;18083;50.560;7.262;2023-06-24T07:01:22;12.98;;;10.45;;
26484;SDS011;18083;50.560;7.262;2023-06-24T07:03:55;12.70;;;11.18;;
26484;SDS011;18083;50.560;7.262;2023-06-24T07:17:00;11.93;;;8.35;;
26484;SDS011;18083;50.560;7.262;2023-06-24T07:19:27;10.82;;;8.65;;
26484;SDS011;18083;50.560;7.262;2023-06-24T07:21:55;10.88;;;7.90;;
26484;SDS011;18083;50.560;7.262;2023-06-24T07:24:22;12.07;;;8.95;;
26484;SDS011;18083;50.560;7.262;2023-06-24T07:26:49;11.70;;;9.30;;
26484;SDS011;18083;50.560;7.262;2023-06-24T07:29:16;12.65;;;8.20;;
26484;SDS011;18083;50.560;7.262;2023-06-24T07:31:44;9.55;;;8.55;;
26484;SDS011;18083;50.560;7.262;2023-06-24T07:34:11;10.18;;;9.15;;
26484;SDS011;18083;50.560;7.262;2023-06-24T07:36:39;9.75;;;8.30;;
26484;SDS011;18083;50.560;7.262;2023-06-24T07:39:06;11.12;;;8.53;;
26484;SDS011;18083;50.560;7.262;2023-06-24T07:41:33;9.95;;;8.83;;
26484;SDS011;18083;50.560;7.262;2023-06-24T07:44:01;10.00;;;8.83;;
26484;SDS011;18083;50.560;7.262;2023-06-24T07:46:28;10.95;;;7.55;;
26484;SDS011;18083;50.560;7.262;2023-06-24T07:48:56;9.20;;;7.95;;
26484;SDS011;18083;50.560;7.262;2023-06-24T07:51:23;11.28;;;7.20;;
26484;SDS011;18083;50.560;7.262;2023-06-24T07:53:50;8.58;;;7.67;;
26484;SDS011;18083;50.560;7.262;2023-06-24T07:56:18;10.40;;;6.62;;
26484;SDS011;18083;50.560;7.262;2023-06-24T07:58:45;9.18;;;7.17;;
26484;SDS011;18083;50.560;7.262;2023-06-24T08:01:12;12.50;;;8.48;;
26484;SDS011;18083;50.560;7.262;2023-06-24T08:03:40;11.08;;;7.62;;
26484;SDS011;18083;50.560;7.262;2023-06-24T08:06:07;11.20;;;8.25;;
26484;SDS011;18083;50.560;7.262;2023-06-24T08:08:34;10.50;;;6.95;;
26484;SDS011;18083;50.560;7.262;2023-06-24T08:11:02;11.90;;;7.45;;
26484;SDS011;18083;50.560;7.262;2023-06-24T08:13:30;9.05;;;6.30;;
26484;SDS011;18083;50.560;7.262;2023-06-24T08:15:57;8.95;;;6.72;;
26484;SDS011;18083;50.560;7.262;2023-06-24T08:18:25;11.05;;;6.00;;
26484;SDS011;18083;50.560;7.262;2023-06-24T08:20:52;8.68;;;5.67;;
26484;SDS011;18083;50.560;7.262;2023-06-24T08:23:19;8.28;;;6.70;;
26484;SDS011;18083;50.560;7.262;2023-06-24T08:25:46;8.30;;;6.72;;
26484;SDS011;18083;50.560;7.262;2023-06-24T08:28:14;7.60;;;5.97;;
26484;SDS011;18083;50.560;7.262;2023-06-24T08:30:41;7.90;;;5.97;;
26484;SDS011;18083;50.560;7.262;2023-06-24T08:33:08;6.85;;;6.15;;
26484;SDS011;18083;50.560;7.262;2023-06-24T08:35:36;8.53;;;6.33;;
26484;SDS011;18083;50.560;7.262;2023-06-24T08:38:03;7.72;;;5.55;;
26484;SDS011;18083;50.560;7.262;2023-06-24T08:40:30;8.98;;;5.65;;
26484;SDS011;18083;50.560;7.262;2023-06-24T08:42:58;6.47;;;4.72;;
26484;SDS011;18083;50.560;7.262;2023-06-24T08:45:25;5.92;;;5.08;;
26484;SDS011;18083;50.560;7.262;2023-06-24T08:47:52;6.28;;;5.67;;
26484;SDS011;18083;50.560;7.262;2023-06-24T08:50:19;7.33;;;6.05;;
26484;SDS011;18083;50.560;7.262;2023-06-24T08:52:51;7.53;;;5.78;;
26484;SDS011;18083;50.560;7.262;2023-06-24T08:55:19;7.12;;;5.92;;
26484;SDS011;18083;50.560;7.262;2023-06-24T08:57:47;5.22;;;4.72;;
26484;SDS011;18083;50.560;7.262;2023-06-24T09:00:16;6.85;;;4.90;;
26484;SDS011;18083;50.560;7.262;2023-06-24T09:02:44;7.35;;;5.62;;
26484;SDS011;18083;50.560;7.262;2023-06-24T09:05:11;9.53;;;5.28;;
26484;SDS011;18083;50.560;7.262;2023-06-24T09:07:38;6.58;;;4.70;;
26484;SDS011;18083;50.560;7.262;2023-06-24T09:10:06;6.17;;;5.42;;
26484;SDS011;18083;50.560;7.262;2023-06-24T09:12:34;6.20;;;4.50;;
26484;SDS011;18083;50.560;7.262;2023-06-24T09:15:01;7.40;;;6.05;;
26484;SDS011;18083;50.560;7.262;2023-06-24T09:17:29;8.95;;;4.95;;
26484;SDS011;18083;50.560;7.262;2023-06-24T09:20:02;7.15;;;5.35;;
26484;SDS011;18083;50.560;7.262;2023-06-24T09:22:25;7.37;;;4.55;;
26484;SDS011;18083;50.560;7.262;2023-06-24T09:24:55;5.28;;;4.40;;
26484;SDS011;18083;50.560;7.262;2023-06-24T09:27:22;9.50;;;4.60;;
26484;SDS011;18083;50.560;7.262;2023-06-24T09:29:50;5.12;;;3.75;;
26484;SDS011;18083;50.560;7.262;2023-06-24T09:32:17;4.90;;;4.50;;
26484;SDS011;18083;50.560;7.262;2023-06-24T09:34:45;8.18;;;4.17;;
26484;SDS011;18083;50.560;7.262;2023-06-24T09:37:12;4.30;;;3.90;;
26484;SDS011;18083;50.560;7.262;2023-06-24T09:39:41;4.40;;;4.00;;
26484;SDS011;18083;50.560;7.262;2023-06-24T09:42:08;3.92;;;3.17;;
26484;SDS011;18083;50.560;7.262;2023-06-24T09:44:37;4.10;;;3.70;;
26484;SDS011;18083;50.560;7.262;2023-06-24T09:47:04;3.92;;;3.50;;
26484;SDS011;18083;50.560;7.262;2023-06-24T09:49:32;4.10;;;3.70;;
26484;SDS011;18083;50.560;7.262;2023-06-24T09:51:59;4.08;;;3.65;;
26484;SDS011;18083;50.560;7.262;2023-06-24T09:54:27;4.40;;;3.98;;
26484;SDS011;18083;50.560;7.262;2023-06-24T09:56:56;7.35;;;4.75;;
26484;SDS011;18083;50.560;7.262;2023-06-24T09:59:24;6.00;;;4.08;;
26484;SDS011;18083;50.560;7.262;2023-06-24T10:01:52;5.03;;;4.53;;
26484;SDS011;18083;50.560;7.262;2023-06-24T10:04:20;5.70;;;5.03;;
26484;SDS011;18083;50.560;7.262;2023-06-24T10:06:49;4.72;;;4.25;;
26484;SDS011;18083;50.560;7.262;2023-06-24T10:09:17;6.25;;;4.87;;
26484;SDS011;18083;50.560;7.262;2023-06-24T10:11:45;6.05;;;4.58;;
26484;SDS011;18083;50.560;7.262;2023-06-24T10:14:14;4.70;;;4.30;;
26484;SDS011;18083;50.560;7.262;2023-06-24T10:17:00;7.83;;;5.90;;
26484;SDS011;18083;50.560;7.262;2023-06-24T10:22:17;6.75;;;5.75;;
26484;SDS011;18083;50.560;7.262;2023-06-24T10:27:56;5.33;;;4.67;;
26484;SDS011;18083;50.560;7.262;2023-06-24T10:30:33;9.98;;;5.62;;
26484;SDS011;18083;50.560;7.262;2023-06-24T10:33:16;6.00;;;5.40;;
26484;SDS011;18083;50.560;7.262;2023-06-24T10:36:30;5.28;;;3.98;;
26484;SDS011;18083;50.560;7.262;2023-06-24T10:41:21;7.12;;;4.80;;
26484;SDS011;18083;50.560;7.262;2023-06-24T10:54:31;7.40;;;5.33;;
26484;SDS011;18083;50.560;7.262;2023-06-24T10:57:07;5.45;;;4.95;;
26484;SDS011;18083;50.560;7.262;2023-06-24T10:59:41;5.85;;;4.85;;
26484;SDS011;18083;50.560;7.262;2023-06-24T11:02:08;5.47;;;4.67;;
26484;SDS011;18083;50.560;7.262;2023-06-24T11:04:48;4.67;;;4.28;;
26484;SDS011;18083;50.560;7.262;2023-06-24T11:07:19;6.00;;;4.37;;
26484;SDS011;18083;50.560;7.262;2023-06-24T11:12:43;4.45;;;4.05;;
26484;SDS011;18083;50.560;7.262;2023-06-24T11:15:12;6.45;;;4.87;;
26484;SDS011;18083;50.560;7.262;2023-06-24T11:17:40;6.75;;;4.60;;
26484;SDS011;18083;50.560;7.262;2023-06-24T11:20:08;5.47;;;4.50;;
26484;SDS011;18083;50.560;7.262;2023-06-24T11:22:36;6.95;;;4.62;;
26484;SDS011;18083;50.560;7.262;2023-06-24T11:25:03;5.05;;;4.65;;
26484;SDS011;18083;50.560;7.262;2023-06-24T11:27:31;4.20;;;3.87;;
26484;SDS011;18083;50.560;7.262;2023-06-24T11:29:59;5.53;;;4.50;;
26484;SDS011;18083;50.560;7.262;2023-06-24T11:32:35;5.05;;;4.45;;
26484;SDS011;18083;50.560;7.262;2023-06-24T11:35:06;5.42;;;4.92;;
26484;SDS011;18083;50.560;7.262;2023-06-24T11:37:34;4.42;;;3.95;;
26484;SDS011;18083;50.560;7.262;2023-06-24T11:40:05;4.55;;;4.12;;
26484;SDS011;18083;50.560;7.262;2023-06-24T11:42:36;5.15;;;4.30;;
26484;SDS011;18083;50.560;7.262;2023-06-24T11:45:05;4.55;;;4.12;;
26484;SDS011;18083;50.560;7.262;2023-06-24T11:47:33;7.50;;;4.25;;
26484;SDS011;18083;50.560;7.262;2023-06-24T11:50:00;5.60;;;4.45;;
26484;SDS011;18083;50.560;7.262;2023-06-24T11:52:32;6.37;;;4.12;;
26484;SDS011;18083;50.560;7.262;2023-06-24T11:55:00;4.50;;;3.83;;
26484;SDS011;18083;50.560;7.262;2023-06-24T11:57:47;5.15;;;3.70;;
26484;SDS011;18083;50.560;7.262;2023-06-24T12:00:21;6.67;;;4.05;;
26484;SDS011;18083;50.560;7.262;2023-06-24T12:02:50;5.10;;;4.53;;
26484;SDS011;18083;50.560;7.262;2023-06-24T12:05:22;4.78;;;4.28;;
26484;SDS011;18083;50.560;7.262;2023-06-24T12:07:51;5.58;;;4.65;;
26484;SDS011;18083;50.560;7.262;2023-06-24T12:10:19;5.05;;;4.25;;
26484;SDS011;18083;50.560;7.262;2023-06-24T12:12:46;6.37;;;4.25;;
26484;SDS011;18083;50.560;7.262;2023-06-24T12:15:13;4.28;;;3.58;;
26484;SDS011;18083;50.560;7.262;2023-06-24T12:17:40;5.97;;;4.85;;
26484;SDS011;18083;50.560;7.262;2023-06-24T12:20:08;5.72;;;4.45;;
26484;SDS011;18083;50.560;7.262;2023-06-24T12:22:35;4.47;;;4.08;;
26484;SDS011;18083;50.560;7.262;2023-06-24T12:25:03;4.28;;;3.87;;
26484;SDS011;18083;50.560;7.262;2023-06-24T12:27:30;4.65;;;4.22;;
26484;SDS011;18083;50.560;7.262;2023-06-24T12:29:58;5.20;;;4.80;;
26484;SDS011;18083;50.560;7.262;2023-06-24T12:32:25;5.30;;;4.80;;
26484;SDS011;18083;50.560;7.262;2023-06-24T12:34:53;4.97;;;4.47;;
26484;SDS011;18083;50.560;7.262;2023-06-24T12:37:21;4.58;;;4.03;;
26484;SDS011;18083;50.560;7.262;2023-06-24T12:42:53;4.22;;;3.90;;
26484;SDS011;18083;50.560;7.262;2023-06-24T12:45:20;6.37;;;4.87;;
26484;SDS011;18083;50.560;7.262;2023-06-24T12:47:47;4.10;;;3.72;;
26484;SDS011;18083;50.560;7.262;2023-06-24T12:50:16;6.80;;;4.42;;
26484;SDS011;18083;50.560;7.262;2023-06-24T12:52:44;4.83;;;4.33;;
26484;SDS011;18083;50.560;7.262;2023-06-24T12:55:11;12.60;;;4.80;;
26484;SDS011;18083;50.560;7.262;2023-06-24T12:57:38;5.15;;;4.60;;
26484;SDS011;18083;50.560;7.262;2023-06-24T13:00:06;4.65;;;4.22;;
26484;SDS011;18083;50.560;7.262;2023-06-24T13:02:34;5.42;;;3.92;;
26484;SDS011;18083;50.560;7.262;2023-06-24T13:05:01;4.33;;;3.72;;
26484;SDS011;18083;50.560;7.262;2023-06-24T13:07:29;4.47;;;4.00;;
26484;SDS011;18083;50.560;7.262;2023-06-24T13:09:57;4.33;;;3.92;;
26484;SDS011;18083;50.560;7.262;2023-06-24T13:15:29;4.58;;;3.60;;
26484;SDS011;18083;50.560;7.262;2023-06-24T13:17:57;4.50;;;4.10;;
26484;SDS011;18083;50.560;7.262;2023-06-24T13:20:36;4.53;;;4.17;;
26484;SDS011;18083;50.560;7.262;2023-06-24T13:23:04;5.92;;;4.05;;
26484;SDS011;18083;50.560;7.262;2023-06-24T13:25:31;5.37;;;4.15;;
26484;SDS011;18083;50.560;7.262;2023-06-24T13:27:58;4.97;;;4.08;;
26484;SDS011;18083;50.560;7.262;2023-06-24T13:30:25;4.12;;;3.83;;
26484;SDS011;18083;50.560;7.262;2023-06-24T13:32:53;4.70;;;4.30;;
26484;SDS011;18083;50.560;7.262;2023-06-24T13:35:20;4.22;;;3.92;;
26484;SDS011;18083;50.560;7.262;2023-06-24T13:37:50;4.12;;;3.58;;
26484;SDS011;18083;50.560;7.262;2023-06-24T13:40:18;5.08;;;3.90;;
26484;SDS011;18083;50.560;7.262;2023-06-24T13:42:47;4.87;;;4.22;;
26484;SDS011;18083;50.560;7.262;2023-06-24T13:45:18;4.45;;;4.00;;
26484;SDS011;18083;50.560;7.262;2023-06-24T13:47:51;4.30;;;3.90;;
26484;SDS011;18083;50.560;7.262;2023-06-24T13:50:17;6.17;;;4.42;;
26484;SDS011;18083;50.560;7.262;2023-06-24T13:52:52;5.55;;;4.30;;
26484;SDS011;18083;50.560;7.262;2023-06-24T13:55:27;4.17;;;3.77;;
26484;SDS011;18083;50.560;7.262;2023-06-24T13:57:54;5.37;;;4.15;;
26484;SDS011;18083;50.560;7.262;2023-06-24T14:00:26;4.85;;;4.45;;
26484;SDS011;18083;50.560;7.262;2023-06-24T14:02:52;4.80;;;4.22;;
26484;SDS011;18083;50.560;7.262;2023-06-24T14:05:19;5.60;;;3.87;;
26484;SDS011;18083;50.560;7.262;2023-06-24T14:07:47;4.03;;;3.72;;
26484;SDS011;18083;50.560;7.262;2023-06-24T14:10:20;7.80;;;4.05;;
26484;SDS011;18083;50.560;7.262;2023-06-24T14:12:46;4.83;;;4.40;;
26484;SDS011;18083;50.560;7.262;2023-06-24T14:15:13;5.30;;;3.85;;
26484;SDS011;18083;50.560;7.262;2023-06-24T14:17:40;5.22;;;4.67;;
26484;SDS011;18083;50.560;7.262;2023-06-24T14:20:08;4.53;;;4.12;;
26484;SDS011;18083;50.560;7.262;2023-06-24T14:22:36;4.75;;;3.72;;
26484;SDS011;18083;50.560;7.262;2023-06-24T14:25:03;4.42;;;3.58;;
26484;SDS011;18083;50.560;7.262;2023-06-24T14:27:31;4.20;;;3.85;;
26484;SDS011;18083;50.560;7.262;2023-06-24T14:29:58;4.33;;;3.90;;
26484;SDS011;18083;50.560;7.262;2023-06-24T14:32:25;4.53;;;4.10;;
26484;SDS011;18083;50.560;7.262;2023-06-24T14:34:53;4.33;;;3.92;;
26484;SDS011;18083;50.560;7.262;2023-06-24T14:37:20;8.93;;;3.95;;
26484;SDS011;18083;50.560;7.262;2023-06-24T14:39:49;4.90;;;4.40;;
26484;SDS011;18083;50.560;7.262;2023-06-24T14:42:16;4.65;;;4.20;;
26484;SDS011;18083;50.560;7.262;2023-06-24T14:44:45;4.30;;;3.90;;
26484;SDS011;18083;50.560;7.262;2023-06-24T14:47:14;4.42;;;4.03;;
26484;SDS011;18083;50.560;7.262;2023-06-24T14:49:41;5.67;;;4.67;;
26484;SDS011;18083;50.560;7.262;2023-06-24T14:52:08;4.60;;;3.98;;
26484;SDS011;18083;50.560;7.262;2023-06-24T14:54:36;3.83;;;3.52;;
26484;SDS011;18083;50.560;7.262;2023-06-24T14:57:03;4.55;;;3.85;;
26484;SDS011;18083;50.560;7.262;2023-06-24T14:59:30;4.87;;;4.20;;
26484;SDS011;18083;50.560;7.262;2023-06-24T15:01:57;4.55;;;4.15;;
26484;SDS011;18083;50.560;7.262;2023-06-24T15:04:25;4.03;;;3.62;;
26484;SDS011;18083;50.560;7.262;2023-06-24T15:06:52;4.00;;;3.60;;
26484;SDS011;18083;50.560;7.262;2023-06-24T15:09:19;5.15;;;4.58;;
26484;SDS011;18083;50.560;7.262;2023-06-24T15:11:47;4.00;;;3.58;;
26484;SDS011;18083;50.560;7.262;2023-06-24T15:14:14;4.40;;;4.00;;
26484;SDS011;18083;50.560;7.262;2023-06-24T15:16:41;4.22;;;3.83;;
26484;SDS011;18083;50.560;7.262;2023-06-24T15:19:09;6.78;;;4.00;;
26484;SDS011;18083;50.560;7.262;2023-06-24T15:21:45;4.53;;;4.12;;
26484;SDS011;18083;50.560;7.262;2023-06-24T15:24:16;4.85;;;4.35;;
26484;SDS011;18083;50.560;7.262;2023-06-24T15:26:43;4.70;;;3.98;;
26484;SDS011;18083;50.560;7.262;2023-06-24T15:29:11;4.40;;;4.00;;
26484;SDS011;18083;50.560;7.262;2023-06-24T15:31:38;4.70;;;3.83;;
26484;SDS011;18083;50.560;7.262;2023-06-24T15:34:10;4.40;;;3.98;;
26484;SDS011;18083;50.560;7.262;2023-06-24T15:36:50;6.72;;;4.00;;
26484;SDS011;18083;50.560;7.262;2023-06-24T15:39:19;5.65;;;3.98;;
26484;SDS011;18083;50.560;7.262;2023-06-24T15:41:59;5.40;;;4.25;;
26484;SDS011;18083;50.560;7.262;2023-06-24T15:44:31;6.05;;;4.03;;
26484;SDS011;18083;50.560;7.262;2023-06-24T15:46:57;4.28;;;3.83;;
26484;SDS011;18083;50.560;7.262;2023-06-24T15:49:24;4.80;;;4.30;;
26484;SDS011;18083;50.560;7.262;2023-06-24T15:51:51;4.90;;;4.25;;
26484;SDS011;18083;50.560;7.262;2023-06-24T15:54:25;4.70;;;4.20;;